sensor_id;sensor_type;location;lat;lon;timestamp;P1;durP1;ratioP1;P2;durP2;ratioP2
79346;SDS011;68815;48.810;44.482;2023-04-01T00:02:20;4.9;;;2.4;;
79346;SDS011;68815;48.810;44.482;2023-04-01T00:05:22;4.8;;;2.4;;
79346;SDS011;68815;48.810;44.482;2023-04-01T00:08:23;5.4;;;2.5;;
79346;SDS011;68815;48.810;44.482;2023-04-01T00:11:25;5.5;;;2.6;;
79346;SDS011;68815;48.810;44.482;2023-04-01T00:14:27;5.9;;;2.5;;
79346;SDS011;68815;48.810;44.482;2023-04-01T00:17:29;7.4;;;2.4;;
79346;SDS011;68815;48.810;44.482;2023-04-01T00:20:30;7;;;2.7;;
79346;SDS011;68815;48.810;44.482;2023-04-01T00:23:32;5.7;;;2.4;;
79346;SDS011;68815;48.810;44.482;2023-04-01T00:26:33;4.8;;;2.1;;
79346;SDS011;68815;48.810;44.482;2023-04-01T00:29:34;4.7;;;2.1;;
79346;SDS011;68815;48.810;44.482;2023-04-01T00:32:36;5.1;;;2.1;;
79346;SDS011;68815;48.810;44.482;2023-04-01T00:35:38;4.4;;;2.1;;
79346;SDS011;68815;48.810;44.482;2023-04-01T00:38:40;6.2;;;2.4;;
79346;SDS011;68815;48.810;44.482;2023-04-01T00:41:43;5;;;2.2;;
79346;SDS011;68815;48.810;44.482;2023-04-01T00:44:44;6;;;2.2;;
79346;SDS011;68815;48.810;44.482;2023-04-01T00:47:48;6.6;;;2.5;;
79346;SDS011;68815;48.810;44.482;2023-04-01T00:50:50;4.7;;;2.5;;
79346;SDS011;68815;48.810;44.482;2023-04-01T00:53:55;5.5;;;2.5;;
79346;SDS011;68815;48.810;44.482;2023-04-01T00:57:00;5.2;;;2.4;;
79346;SDS011;68815;48.810;44.482;2023-04-01T01:00:05;5.4;;;2.5;;
79346;SDS011;68815;48.810;44.482;2023-04-01T01:03:09;5.9;;;2.4;;
79346;SDS011;68815;48.810;44.482;2023-04-01T01:06:13;6.4;;;2.3;;
79346;SDS011;68815;48.810;44.482;2023-04-01T01:09:27;5.8;;;2.5;;
79346;SDS011;68815;48.810;44.482;2023-04-01T01:12:34;4.5;;;2.3;;
79346;SDS011;68815;48.810;44.482;2023-04-01T01:15:43;5.7;;;2.1;;
79346;SDS011;68815;48.810;44.482;2023-04-01T01:18:48;5.3;;;2.2;;
79346;SDS011;68815;48.810;44.482;2023-04-01T01:21:58;4.9;;;2.1;;
79346;SDS011;68815;48.810;44.482;2023-04-01T01:25:14;5.9;;;2.4;;
79346;SDS011;68815;48.810;44.482;2023-04-01T01:28:26;5.6;;;2.1;;
79346;SDS011;68815;48.810;44.482;2023-04-01T01:31:38;4.4;;;2.4;;
79346;SDS011;68815;48.810;44.482;2023-04-01T01:34:51;5.6;;;2.4;;
79346;SDS011;68815;48.810;44.482;2023-04-01T01:37:59;6.2;;;2.6;;
79346;SDS011;68815;48.810;44.482;2023-04-01T01:41:05;7;;;2.6;;
79346;SDS011;68815;48.810;44.482;2023-04-01T01:44:11;6.1;;;2.5;;
79346;SDS011;68815;48.810;44.482;2023-04-01T01:47:15;5.2;;;2.1;;
79346;SDS011;68815;48.810;44.482;2023-04-01T01:50:19;5.7;;;2.4;;
79346;SDS011;68815;48.810;44.482;2023-04-01T01:53:24;5.2;;;2.3;;
79346;SDS011;68815;48.810;44.482;2023-04-01T01:56:26;6.8;;;2.1;;
79346;SDS011;68815;48.810;44.482;2023-04-01T01:59:30;7.8;;;2.5;;
79346;SDS011;68815;48.810;44.482;2023-04-01T02:02:33;5.1;;;2.3;;
79346;SDS011;68815;48.810;44.482;2023-04-01T02:05:35;4.8;;;2.4;;
79346;SDS011;68815;48.810;44.482;2023-04-01T02:08:37;8.1;;;2.1;;
79346;SDS011;68815;48.810;44.482;2023-04-01T02:11:45;6.5;;;2.2;;
79346;SDS011;68815;48.810;44.482;2023-04-01T02:14:50;5.2;;;2;;
79346;SDS011;68815;48.810;44.482;2023-04-01T02:17:57;5.1;;;2.3;;
79346;SDS011;68815;48.810;44.482;2023-04-01T02:20:59;5.1;;;2.5;;
79346;SDS011;68815;48.810;44.482;2023-04-01T02:24:02;5.1;;;2.5;;
79346;SDS011;68815;48.810;44.482;2023-04-01T02:27:07;5.1;;;2.2;;
79346;SDS011;68815;48.810;44.482;2023-04-01T02:30:10;5.4;;;2.3;;
79346;SDS011;68815;48.810;44.482;2023-04-01T02:33:12;5.8;;;2.4;;
79346;SDS011;68815;48.810;44.482;2023-04-01T02:36:14;6.1;;;2.7;;
79346;SDS011;68815;48.810;44.482;2023-04-01T02:39:17;4.8;;;2.5;;
79346;SDS011;68815;48.810;44.482;2023-04-01T02:42:19;6.3;;;2.7;;
79346;SDS011;68815;48.810;44.482;2023-04-01T02:45:20;6;;;2.6;;
79346;SDS011;68815;48.810;44.482;2023-04-01T02:48:22;4.7;;;2.5;;
79346;SDS011;68815;48.810;44.482;2023-04-01T02:51:25;8.5;;;2.8;;
79346;SDS011;68815;48.810;44.482;2023-04-01T02:54:26;5.7;;;2.4;;
79346;SDS011;68815;48.810;44.482;2023-04-01T02:57:27;6.7;;;2.5;;
79346;SDS011;68815;48.810;44.482;2023-04-01T03:00:29;5.4;;;2.8;;
79346;SDS011;68815;48.810;44.482;2023-04-01T03:03:30;5.8;;;3;;
79346;SDS011;68815;48.810;44.482;2023-04-01T03:06:32;6.2;;;2.9;;
79346;SDS011;68815;48.810;44.482;2023-04-01T03:09:33;6.6;;;2.9;;
79346;SDS011;68815;48.810;44.482;2023-04-01T03:12:35;6.9;;;2.8;;
79346;SDS011;68815;48.810;44.482;2023-04-01T03:15:37;6.7;;;2.8;;
79346;SDS011;68815;48.810;44.482;2023-04-01T03:18:38;6.5;;;2.7;;
79346;SDS011;68815;48.810;44.482;2023-04-01T03:21:40;6;;;2.9;;
79346;SDS011;68815;48.810;44.482;2023-04-01T03:24:41;5.3;;;2.8;;
79346;SDS011;68815;48.810;44.482;2023-04-01T03:27:42;5.2;;;2.8;;
79346;SDS011;68815;48.810;44.482;2023-04-01T03:30:44;6;;;3;;
79346;SDS011;68815;48.810;44.482;2023-04-01T03:33:45;8.9;;;3.1;;
79346;SDS011;68815;48.810;44.482;2023-04-01T03:36:46;5.2;;;2.7;;
79346;SDS011;68815;48.810;44.482;2023-04-01T03:39:48;6.1;;;2.9;;
79346;SDS011;68815;48.810;44.482;2023-04-01T03:42:49;6.9;;;3.5;;
79346;SDS011;68815;48.810;44.482;2023-04-01T03:45:52;7.3;;;3.1;;
79346;SDS011;68815;48.810;44.482;2023-04-01T03:48:54;7.1;;;3.3;;
79346;SDS011;68815;48.810;44.482;2023-04-01T03:51:55;6.9;;;3.4;;
79346;SDS011;68815;48.810;44.482;2023-04-01T03:54:57;7;;;3.4;;
79346;SDS011;68815;48.810;44.482;2023-04-01T03:57:58;6.6;;;3.4;;
79346;SDS011;68815;48.810;44.482;2023-04-01T04:01:00;7.3;;;3.2;;
79346;SDS011;68815;48.810;44.482;2023-04-01T04:04:01;7.3;;;3.4;;
79346;SDS011;68815;48.810;44.482;2023-04-01T04:07:03;8.1;;;3.7;;
79346;SDS011;68815;48.810;44.482;2023-04-01T04:10:05;8.6;;;3.6;;
79346;SDS011;68815;48.810;44.482;2023-04-01T04:13:07;6.3;;;3.3;;
79346;SDS011;68815;48.810;44.482;2023-04-01T04:16:09;7.1;;;3.5;;
79346;SDS011;68815;48.810;44.482;2023-04-01T04:19:11;6.6;;;3.5;;
79346;SDS011;68815;48.810;44.482;2023-04-01T04:22:13;7.8;;;3.7;;
79346;SDS011;68815;48.810;44.482;2023-04-01T04:25:15;8;;;3.9;;
79346;SDS011;68815;48.810;44.482;2023-04-01T04:28:16;7.2;;;3.6;;
79346;SDS011;68815;48.810;44.482;2023-04-01T04:31:18;7.1;;;3.7;;
79346;SDS011;68815;48.810;44.482;2023-04-01T04:34:20;7;;;3.5;;
79346;SDS011;68815;48.810;44.482;2023-04-01T04:37:21;6.1;;;3.4;;
79346;SDS011;68815;48.810;44.482;2023-04-01T04:40:22;7.1;;;3.7;;
79346;SDS011;68815;48.810;44.482;2023-04-01T04:43:24;8.9;;;3.9;;
79346;SDS011;68815;48.810;44.482;2023-04-01T04:46:26;8;;;3.6;;
79346;SDS011;68815;48.810;44.482;2023-04-01T04:49:27;7.1;;;3.6;;
79346;SDS011;68815;48.810;44.482;2023-04-01T04:52:29;8.9;;;4;;
79346;SDS011;68815;48.810;44.482;2023-04-01T04:55:30;7.5;;;3.9;;
79346;SDS011;68815;48.810;44.482;2023-04-01T04:58:31;7.4;;;3.7;;
79346;SDS011;68815;48.810;44.482;2023-04-01T05:01:33;8;;;3.6;;
79346;SDS011;68815;48.810;44.482;2023-04-01T05:04:34;9.1;;;3.9;;
79346;SDS011;68815;48.810;44.482;2023-04-01T05:07:36;8.9;;;4.2;;
79346;SDS011;68815;48.810;44.482;2023-04-01T05:10:37;9;;;4.1;;
79346;SDS011;68815;48.810;44.482;2023-04-01T05:13:39;10.6;;;4.1;;
79346;SDS011;68815;48.810;44.482;2023-04-01T05:16:40;8.2;;;3.8;;
79346;SDS011;68815;48.810;44.482;2023-04-01T05:19:42;8.6;;;4.3;;
79346;SDS011;68815;48.810;44.482;2023-04-01T05:22:44;7.2;;;4.1;;
79346;SDS011;68815;48.810;44.482;2023-04-01T05:25:45;8.6;;;4.6;;
79346;SDS011;68815;48.810;44.482;2023-04-01T05:28:47;9.1;;;4.4;;
79346;SDS011;68815;48.810;44.482;2023-04-01T05:31:48;8;;;4.6;;
79346;SDS011;68815;48.810;44.482;2023-04-01T05:34:50;8.4;;;4.1;;
79346;SDS011;68815;48.810;44.482;2023-04-01T05:37:51;8.4;;;4;;
79346;SDS011;68815;48.810;44.482;2023-04-01T05:40:58;8.8;;;4.4;;
79346;SDS011;68815;48.810;44.482;2023-04-01T05:43:59;7.1;;;3.7;;
79346;SDS011;68815;48.810;44.482;2023-04-01T05:47:01;7.7;;;4;;
79346;SDS011;68815;48.810;44.482;2023-04-01T05:50:03;8.7;;;4.3;;
79346;SDS011;68815;48.810;44.482;2023-04-01T05:53:05;9.5;;;3.7;;
79346;SDS011;68815;48.810;44.482;2023-04-01T05:56:06;6.7;;;3.8;;
79346;SDS011;68815;48.810;44.482;2023-04-01T05:59:09;8.2;;;3.5;;
79346;SDS011;68815;48.810;44.482;2023-04-01T06:02:11;8.5;;;3.8;;
79346;SDS011;68815;48.810;44.482;2023-04-01T06:05:14;7.4;;;3.8;;
79346;SDS011;68815;48.810;44.482;2023-04-01T06:08:19;7.8;;;3.4;;
79346;SDS011;68815;48.810;44.482;2023-04-01T06:11:23;7.5;;;3.4;;
79346;SDS011;68815;48.810;44.482;2023-04-01T06:14:35;7.2;;;3.3;;
79346;SDS011;68815;48.810;44.482;2023-04-01T06:17:49;7;;;3.2;;
79346;SDS011;68815;48.810;44.482;2023-04-01T06:20:59;8;;;3.5;;
79346;SDS011;68815;48.810;44.482;2023-04-01T06:24:11;6.9;;;3.4;;
79346;SDS011;68815;48.810;44.482;2023-04-01T06:27:22;7.3;;;3.3;;
79346;SDS011;68815;48.810;44.482;2023-04-01T06:30:35;7;;;3.2;;
79346;SDS011;68815;48.810;44.482;2023-04-01T06:33:47;6.5;;;2.9;;
79346;SDS011;68815;48.810;44.482;2023-04-01T06:37:03;6.4;;;3;;
79346;SDS011;68815;48.810;44.482;2023-04-01T06:40:26;6.5;;;2.9;;
79346;SDS011;68815;48.810;44.482;2023-04-01T06:43:45;7;;;3.2;;
79346;SDS011;68815;48.810;44.482;2023-04-01T06:46:55;9.5;;;4.2;;
79346;SDS011;68815;48.810;44.482;2023-04-01T06:50:00;6.8;;;2.9;;
79346;SDS011;68815;48.810;44.482;2023-04-01T06:53:10;7.6;;;2.8;;
79346;SDS011;68815;48.810;44.482;2023-04-01T06:56:20;6.4;;;2.7;;
79346;SDS011;68815;48.810;44.482;2023-04-01T06:59:26;9.4;;;4;;
79346;SDS011;68815;48.810;44.482;2023-04-01T07:02:32;9;;;4.1;;
79346;SDS011;68815;48.810;44.482;2023-04-01T07:05:39;5.6;;;2.5;;
79346;SDS011;68815;48.810;44.482;2023-04-01T07:08:42;6;;;2.7;;
79346;SDS011;68815;48.810;44.482;2023-04-01T07:11:47;6.1;;;2.8;;
79346;SDS011;68815;48.810;44.482;2023-04-01T07:14:56;6.6;;;2.6;;
79346;SDS011;68815;48.810;44.482;2023-04-01T07:18:05;6.3;;;2.3;;
79346;SDS011;68815;48.810;44.482;2023-04-01T07:21:15;6.2;;;2.6;;
79346;SDS011;68815;48.810;44.482;2023-04-01T07:24:25;5.5;;;2.2;;
79346;SDS011;68815;48.810;44.482;2023-04-01T07:27:29;6.1;;;2.4;;
79346;SDS011;68815;48.810;44.482;2023-04-01T07:30:33;5.7;;;2;;
79346;SDS011;68815;48.810;44.482;2023-04-01T07:33:58;8.1;;;2.4;;
79346;SDS011;68815;48.810;44.482;2023-04-01T07:37:09;6.4;;;2.2;;
79346;SDS011;68815;48.810;44.482;2023-04-01T07:40:22;7.9;;;2.2;;
79346;SDS011;68815;48.810;44.482;2023-04-01T07:43:36;7.4;;;2.1;;
79346;SDS011;68815;48.810;44.482;2023-04-01T07:46:59;6;;;2.6;;
79346;SDS011;68815;48.810;44.482;2023-04-01T07:50:11;7.2;;;1.9;;
79346;SDS011;68815;48.810;44.482;2023-04-01T07:53:23;6.2;;;2.1;;
79346;SDS011;68815;48.810;44.482;2023-04-01T07:56:35;5.3;;;1.9;;
79346;SDS011;68815;48.810;44.482;2023-04-01T07:59:45;4.8;;;2.1;;
79346;SDS011;68815;48.810;44.482;2023-04-01T08:06:22;10.9;;;5.8;;
79346;SDS011;68815;48.810;44.482;2023-04-01T08:09:31;17;;;8.9;;
79346;SDS011;68815;48.810;44.482;2023-04-01T08:12:44;15.7;;;8.3;;
79346;SDS011;68815;48.810;44.482;2023-04-01T08:15:53;14.4;;;6.4;;
79346;SDS011;68815;48.810;44.482;2023-04-01T08:19:03;11.5;;;6.8;;
79346;SDS011;68815;48.810;44.482;2023-04-01T08:22:17;15.3;;;7.5;;
79346;SDS011;68815;48.810;44.482;2023-04-01T08:25:25;21.9;;;11.6;;
79346;SDS011;68815;48.810;44.482;2023-04-01T08:28:30;29.3;;;16;;
79346;SDS011;68815;48.810;44.482;2023-04-01T08:31:35;24.7;;;14.9;;
79346;SDS011;68815;48.810;44.482;2023-04-01T08:34:44;17;;;10.2;;
79346;SDS011;68815;48.810;44.482;2023-04-01T08:37:48;24;;;12.8;;
79346;SDS011;68815;48.810;44.482;2023-04-01T08:40:56;14.6;;;8.4;;
79346;SDS011;68815;48.810;44.482;2023-04-01T08:47:31;18.9;;;10.4;;
79346;SDS011;68815;48.810;44.482;2023-04-01T08:50:50;13.9;;;6.6;;
79346;SDS011;68815;48.810;44.482;2023-04-01T08:54:05;12.2;;;6.5;;
79346;SDS011;68815;48.810;44.482;2023-04-01T08:57:19;11.2;;;4.6;;
79346;SDS011;68815;48.810;44.482;2023-04-01T09:00:29;11.8;;;6.1;;
79346;SDS011;68815;48.810;44.482;2023-04-01T09:03:37;12.4;;;5.6;;
79346;SDS011;68815;48.810;44.482;2023-04-01T09:06:48;11.6;;;4.6;;
79346;SDS011;68815;48.810;44.482;2023-04-01T09:10:04;9.5;;;4.2;;
79346;SDS011;68815;48.810;44.482;2023-04-01T09:13:25;14.3;;;6.2;;
79346;SDS011;68815;48.810;44.482;2023-04-01T09:16:39;16.2;;;7.9;;
79346;SDS011;68815;48.810;44.482;2023-04-01T09:19:50;10.7;;;5.8;;
79346;SDS011;68815;48.810;44.482;2023-04-01T09:23:09;9.2;;;4.8;;
79346;SDS011;68815;48.810;44.482;2023-04-01T09:26:28;10.9;;;4.3;;
79346;SDS011;68815;48.810;44.482;2023-04-01T09:33:16;9.8;;;4.8;;
79346;SDS011;68815;48.810;44.482;2023-04-01T09:36:28;8.4;;;3.2;;
79346;SDS011;68815;48.810;44.482;2023-04-01T09:39:41;8;;;4.4;;
79346;SDS011;68815;48.810;44.482;2023-04-01T09:42:55;10;;;4.8;;
79346;SDS011;68815;48.810;44.482;2023-04-01T09:46:13;9.2;;;4.2;;
79346;SDS011;68815;48.810;44.482;2023-04-01T09:49:26;6.6;;;2.4;;
79346;SDS011;68815;48.810;44.482;2023-04-01T09:52:41;6.9;;;3.2;;
79346;SDS011;68815;48.810;44.482;2023-04-01T09:55:57;12.6;;;6.6;;
79346;SDS011;68815;48.810;44.482;2023-04-01T10:02:58;6.9;;;2.3;;
79346;SDS011;68815;48.810;44.482;2023-04-01T10:06:25;18.8;;;9.7;;
79346;SDS011;68815;48.810;44.482;2023-04-01T10:09:46;18.2;;;9.4;;
79346;SDS011;68815;48.810;44.482;2023-04-01T10:16:41;5.4;;;2.1;;
79346;SDS011;68815;48.810;44.482;2023-04-01T10:20:00;7.9;;;3.1;;
79346;SDS011;68815;48.810;44.482;2023-04-01T10:26:46;8.7;;;4.4;;
79346;SDS011;68815;48.810;44.482;2023-04-01T10:30:01;6.4;;;2.3;;
79346;SDS011;68815;48.810;44.482;2023-04-01T10:33:19;10.4;;;4.5;;
79346;SDS011;68815;48.810;44.482;2023-04-01T10:36:35;8.4;;;4.2;;
79346;SDS011;68815;48.810;44.482;2023-04-01T10:43:17;6.9;;;2;;
79346;SDS011;68815;48.810;44.482;2023-04-01T10:46:44;6.1;;;2.4;;
79346;SDS011;68815;48.810;44.482;2023-04-01T10:53:31;26.3;;;15.4;;
79346;SDS011;68815;48.810;44.482;2023-04-01T10:56:39;14.2;;;8.2;;
79346;SDS011;68815;48.810;44.482;2023-04-01T10:59:51;25.9;;;15.2;;
79346;SDS011;68815;48.810;44.482;2023-04-01T11:06:40;4.5;;;1.7;;
79346;SDS011;68815;48.810;44.482;2023-04-01T11:17:02;7;;;2;;
79346;SDS011;68815;48.810;44.482;2023-04-01T11:20:23;6.3;;;2.4;;
79346;SDS011;68815;48.810;44.482;2023-04-01T11:23:38;9;;;4.1;;
79346;SDS011;68815;48.810;44.482;2023-04-01T11:26:52;5.1;;;1.9;;
79346;SDS011;68815;48.810;44.482;2023-04-01T11:30:08;11.4;;;5.9;;
79346;SDS011;68815;48.810;44.482;2023-04-01T11:33:19;8.7;;;5;;
79346;SDS011;68815;48.810;44.482;2023-04-01T11:36:27;8.8;;;4.8;;
79346;SDS011;68815;48.810;44.482;2023-04-01T11:39:38;12.5;;;5.9;;
79346;SDS011;68815;48.810;44.482;2023-04-01T11:42:51;36.3;;;21.8;;
79346;SDS011;68815;48.810;44.482;2023-04-01T11:46:01;7;;;3.1;;
79346;SDS011;68815;48.810;44.482;2023-04-01T11:49:17;4.7;;;1.9;;
79346;SDS011;68815;48.810;44.482;2023-04-01T11:52:32;5.4;;;2.1;;
79346;SDS011;68815;48.810;44.482;2023-04-01T11:55:45;9.9;;;3.7;;
79346;SDS011;68815;48.810;44.482;2023-04-01T11:59:04;7.7;;;3.3;;
79346;SDS011;68815;48.810;44.482;2023-04-01T12:02:24;5.4;;;2.3;;
79346;SDS011;68815;48.810;44.482;2023-04-01T12:05:37;4.9;;;2.1;;
79346;SDS011;68815;48.810;44.482;2023-04-01T12:08:46;7;;;3.2;;
79346;SDS011;68815;48.810;44.482;2023-04-01T12:11:59;5.1;;;2.3;;
79346;SDS011;68815;48.810;44.482;2023-04-01T12:15:16;5.3;;;2.6;;
79346;SDS011;68815;48.810;44.482;2023-04-01T12:18:25;9.8;;;3.4;;
79346;SDS011;68815;48.810;44.482;2023-04-01T12:21:36;7;;;3.3;;
79346;SDS011;68815;48.810;44.482;2023-04-01T12:24:42;4.4;;;2;;
79346;SDS011;68815;48.810;44.482;2023-04-01T12:27:50;7;;;2.6;;
79346;SDS011;68815;48.810;44.482;2023-04-01T12:31:03;5.7;;;2.5;;
79346;SDS011;68815;48.810;44.482;2023-04-01T12:34:22;6.9;;;2.1;;
79346;SDS011;68815;48.810;44.482;2023-04-01T12:37:31;7.8;;;2.5;;
79346;SDS011;68815;48.810;44.482;2023-04-01T12:40:46;6.6;;;1.9;;
79346;SDS011;68815;48.810;44.482;2023-04-01T12:43:58;6.3;;;1.7;;
79346;SDS011;68815;48.810;44.482;2023-04-01T12:47:13;4.9;;;2;;
79346;SDS011;68815;48.810;44.482;2023-04-01T12:50:27;6.4;;;2.3;;
79346;SDS011;68815;48.810;44.482;2023-04-01T12:53:38;5.6;;;1.9;;
79346;SDS011;68815;48.810;44.482;2023-04-01T12:56:49;5.7;;;1.6;;
79346;SDS011;68815;48.810;44.482;2023-04-01T13:00:04;4.6;;;2.1;;
79346;SDS011;68815;48.810;44.482;2023-04-01T13:03:18;6.3;;;1.9;;
79346;SDS011;68815;48.810;44.482;2023-04-01T13:06:30;4.8;;;1.4;;
79346;SDS011;68815;48.810;44.482;2023-04-01T13:09:42;4.4;;;1.8;;
79346;SDS011;68815;48.810;44.482;2023-04-01T13:12:54;8.1;;;1.8;;
79346;SDS011;68815;48.810;44.482;2023-04-01T13:16:01;7.8;;;2.1;;
79346;SDS011;68815;48.810;44.482;2023-04-01T13:19:10;5.8;;;2.4;;
79346;SDS011;68815;48.810;44.482;2023-04-01T13:22:20;4.8;;;1.7;;
79346;SDS011;68815;48.810;44.482;2023-04-01T13:25:31;4.3;;;1.5;;
79346;SDS011;68815;48.810;44.482;2023-04-01T13:28:39;7;;;2;;
79346;SDS011;68815;48.810;44.482;2023-04-01T13:31:49;5.6;;;1.8;;
79346;SDS011;68815;48.810;44.482;2023-04-01T13:35:01;3.7;;;1.6;;
79346;SDS011;68815;48.810;44.482;2023-04-01T13:38:19;4.4;;;1.7;;
79346;SDS011;68815;48.810;44.482;2023-04-01T13:41:36;4.5;;;1.9;;
79346;SDS011;68815;48.810;44.482;2023-04-01T13:44:49;5.1;;;1.7;;
79346;SDS011;68815;48.810;44.482;2023-04-01T13:48:08;5.6;;;2.4;;
79346;SDS011;68815;48.810;44.482;2023-04-01T13:51:33;4.3;;;1.6;;
79346;SDS011;68815;48.810;44.482;2023-04-01T13:54:50;5.1;;;1.9;;
79346;SDS011;68815;48.810;44.482;2023-04-01T13:58:10;4.3;;;1.7;;
79346;SDS011;68815;48.810;44.482;2023-04-01T14:01:25;3.9;;;1.8;;
79346;SDS011;68815;48.810;44.482;2023-04-01T14:04:39;4.2;;;1.8;;
79346;SDS011;68815;48.810;44.482;2023-04-01T14:07:51;3.7;;;1.7;;
79346;SDS011;68815;48.810;44.482;2023-04-01T14:11:07;4.3;;;1.8;;
79346;SDS011;68815;48.810;44.482;2023-04-01T14:14:17;5;;;1.6;;
79346;SDS011;68815;48.810;44.482;2023-04-01T14:17:35;4.4;;;1.7;;
79346;SDS011;68815;48.810;44.482;2023-04-01T14:20:48;4.8;;;2;;
79346;SDS011;68815;48.810;44.482;2023-04-01T14:23:59;5.1;;;1.7;;
79346;SDS011;68815;48.810;44.482;2023-04-01T14:27:13;5.3;;;1.7;;
79346;SDS011;68815;48.810;44.482;2023-04-01T14:30:27;4.4;;;1.7;;
79346;SDS011;68815;48.810;44.482;2023-04-01T14:33:39;4;;;1.7;;
79346;SDS011;68815;48.810;44.482;2023-04-01T14:36:50;4.6;;;1.6;;
79346;SDS011;68815;48.810;44.482;2023-04-01T14:40:05;4.1;;;1.7;;
79346;SDS011;68815;48.810;44.482;2023-04-01T14:43:24;5.1;;;1.8;;
79346;SDS011;68815;48.810;44.482;2023-04-01T14:50:06;5;;;2.4;;
79346;SDS011;68815;48.810;44.482;2023-04-01T14:53:16;5.6;;;2.3;;
79346;SDS011;68815;48.810;44.482;2023-04-01T14:56:35;8.8;;;4;;
79346;SDS011;68815;48.810;44.482;2023-04-01T14:59:39;10.8;;;4.9;;
79346;SDS011;68815;48.810;44.482;2023-04-01T15:02:45;14.9;;;6.2;;
79346;SDS011;68815;48.810;44.482;2023-04-01T15:05:55;18.5;;;7.3;;
79346;SDS011;68815;48.810;44.482;2023-04-01T15:09:03;17.4;;;7.4;;
79346;SDS011;68815;48.810;44.482;2023-04-01T15:12:14;17;;;6.7;;
79346;SDS011;68815;48.810;44.482;2023-04-01T15:15:24;22.4;;;7.5;;
79346;SDS011;68815;48.810;44.482;2023-04-01T15:18:34;19.6;;;8.4;;
79346;SDS011;68815;48.810;44.482;2023-04-01T15:21:45;23.8;;;9.3;;
79346;SDS011;68815;48.810;44.482;2023-04-01T15:25:00;22.1;;;8.9;;
79346;SDS011;68815;48.810;44.482;2023-04-01T15:28:15;25.4;;;9.2;;
79346;SDS011;68815;48.810;44.482;2023-04-01T15:31:25;18.4;;;8.7;;
79346;SDS011;68815;48.810;44.482;2023-04-01T15:34:36;21.4;;;8.4;;
79346;SDS011;68815;48.810;44.482;2023-04-01T15:37:45;20.4;;;8.2;;
79346;SDS011;68815;48.810;44.482;2023-04-01T15:40:57;18.7;;;7;;
79346;SDS011;68815;48.810;44.482;2023-04-01T15:44:04;15.9;;;6.8;;
79346;SDS011;68815;48.810;44.482;2023-04-01T15:47:27;14.2;;;6.9;;
79346;SDS011;68815;48.810;44.482;2023-04-01T15:50:45;13.1;;;6;;
79346;SDS011;68815;48.810;44.482;2023-04-01T15:53:56;12.4;;;5.4;;
79346;SDS011;68815;48.810;44.482;2023-04-01T15:57:09;11.7;;;5.2;;
79346;SDS011;68815;48.810;44.482;2023-04-01T16:00:22;14.6;;;5.1;;
79346;SDS011;68815;48.810;44.482;2023-04-01T16:03:31;17.6;;;5.2;;
79346;SDS011;68815;48.810;44.482;2023-04-01T16:06:44;18.5;;;6.9;;
79346;SDS011;68815;48.810;44.482;2023-04-01T16:09:55;20.8;;;7.9;;
79346;SDS011;68815;48.810;44.482;2023-04-01T16:13:04;21.5;;;7.3;;
79346;SDS011;68815;48.810;44.482;2023-04-01T16:16:25;20.3;;;7.5;;
79346;SDS011;68815;48.810;44.482;2023-04-01T16:19:33;20.3;;;8;;
79346;SDS011;68815;48.810;44.482;2023-04-01T16:22:40;23.1;;;7.7;;
79346;SDS011;68815;48.810;44.482;2023-04-01T16:25:52;20.7;;;7;;
79346;SDS011;68815;48.810;44.482;2023-04-01T16:29:04;20.4;;;7.6;;
79346;SDS011;68815;48.810;44.482;2023-04-01T16:32:15;20;;;8;;
79346;SDS011;68815;48.810;44.482;2023-04-01T16:35:25;22.7;;;8.2;;
79346;SDS011;68815;48.810;44.482;2023-04-01T16:38:35;22;;;9.1;;
79346;SDS011;68815;48.810;44.482;2023-04-01T16:41:41;22.5;;;10.7;;
79346;SDS011;68815;48.810;44.482;2023-04-01T16:44:52;22.9;;;10.8;;
79346;SDS011;68815;48.810;44.482;2023-04-01T16:47:59;22.4;;;9.7;;
79346;SDS011;68815;48.810;44.482;2023-04-01T16:51:09;24.5;;;10.5;;
79346;SDS011;68815;48.810;44.482;2023-04-01T16:54:18;20.7;;;10.7;;
79346;SDS011;68815;48.810;44.482;2023-04-01T16:57:31;50.5;;;13.9;;
79346;SDS011;68815;48.810;44.482;2023-04-01T17:00:47;37.2;;;12.3;;
79346;SDS011;68815;48.810;44.482;2023-04-01T17:03:51;52.3;;;16.4;;
79346;SDS011;68815;48.810;44.482;2023-04-01T17:07:01;40.9;;;13.7;;
79346;SDS011;68815;48.810;44.482;2023-04-01T17:10:17;38.6;;;13.5;;
79346;SDS011;68815;48.810;44.482;2023-04-01T17:13:29;41.3;;;15.7;;
79346;SDS011;68815;48.810;44.482;2023-04-01T17:16:41;39;;;16.6;;
79346;SDS011;68815;48.810;44.482;2023-04-01T17:19:59;35.9;;;15;;
79346;SDS011;68815;48.810;44.482;2023-04-01T17:23:11;42.5;;;17;;
79346;SDS011;68815;48.810;44.482;2023-04-01T17:26:18;33.7;;;14.4;;
79346;SDS011;68815;48.810;44.482;2023-04-01T17:29:26;28.2;;;13.4;;
79346;SDS011;68815;48.810;44.482;2023-04-01T17:32:37;37.4;;;14.5;;
79346;SDS011;68815;48.810;44.482;2023-04-01T17:35:50;27.6;;;12.1;;
79346;SDS011;68815;48.810;44.482;2023-04-01T17:42:24;25;;;11.3;;
79346;SDS011;68815;48.810;44.482;2023-04-01T17:45:37;22.4;;;9.5;;
79346;SDS011;68815;48.810;44.482;2023-04-01T17:48:49;17.5;;;9.6;;
79346;SDS011;68815;48.810;44.482;2023-04-01T17:52:00;21.1;;;9.4;;
79346;SDS011;68815;48.810;44.482;2023-04-01T17:55:21;20.5;;;9.4;;
79346;SDS011;68815;48.810;44.482;2023-04-01T17:58:33;16.8;;;8.9;;
79346;SDS011;68815;48.810;44.482;2023-04-01T18:01:46;21.4;;;9.2;;
79346;SDS011;68815;48.810;44.482;2023-04-01T18:05:01;23.6;;;9;;
79346;SDS011;68815;48.810;44.482;2023-04-01T18:08:17;21;;;9.1;;
79346;SDS011;68815;48.810;44.482;2023-04-01T18:11:29;26.3;;;11.2;;
79346;SDS011;68815;48.810;44.482;2023-04-01T18:14:40;34.6;;;13.4;;
79346;SDS011;68815;48.810;44.482;2023-04-01T18:17:51;28.9;;;11.9;;
79346;SDS011;68815;48.810;44.482;2023-04-01T18:21:04;28.2;;;10;;
79346;SDS011;68815;48.810;44.482;2023-04-01T18:24:18;22.6;;;9;;
79346;SDS011;68815;48.810;44.482;2023-04-01T18:27:29;22;;;8.5;;
79346;SDS011;68815;48.810;44.482;2023-04-01T18:30:33;18.2;;;8.1;;
79346;SDS011;68815;48.810;44.482;2023-04-01T18:33:42;20.6;;;7.9;;
79346;SDS011;68815;48.810;44.482;2023-04-01T18:36:50;16.9;;;7.7;;
79346;SDS011;68815;48.810;44.482;2023-04-01T18:39:57;21.7;;;9.3;;
79346;SDS011;68815;48.810;44.482;2023-04-01T18:43:09;22.7;;;11.4;;
79346;SDS011;68815;48.810;44.482;2023-04-01T18:46:17;22;;;10.6;;
79346;SDS011;68815;48.810;44.482;2023-04-01T18:49:25;24.4;;;10.2;;
79346;SDS011;68815;48.810;44.482;2023-04-01T18:52:33;22.1;;;9.8;;
79346;SDS011;68815;48.810;44.482;2023-04-01T18:55:37;21.1;;;9.2;;
79346;SDS011;68815;48.810;44.482;2023-04-01T18:58:45;18.9;;;7.5;;
79346;SDS011;68815;48.810;44.482;2023-04-01T19:01:52;13.8;;;6.2;;
79346;SDS011;68815;48.810;44.482;2023-04-01T19:05:03;10.4;;;5.2;;
79346;SDS011;68815;48.810;44.482;2023-04-01T19:08:14;11.6;;;5.4;;
79346;SDS011;68815;48.810;44.482;2023-04-01T19:11:26;9.9;;;5.4;;
79346;SDS011;68815;48.810;44.482;2023-04-01T19:14:39;12.8;;;5.6;;
79346;SDS011;68815;48.810;44.482;2023-04-01T19:17:53;13.1;;;5.6;;
79346;SDS011;68815;48.810;44.482;2023-04-01T19:21:04;12;;;5.8;;
79346;SDS011;68815;48.810;44.482;2023-04-01T19:24:18;13.7;;;6.8;;
79346;SDS011;68815;48.810;44.482;2023-04-01T19:27:28;13;;;6.1;;
79346;SDS011;68815;48.810;44.482;2023-04-01T19:30:38;15.6;;;6.5;;
79346;SDS011;68815;48.810;44.482;2023-04-01T19:33:48;12.9;;;6.4;;
79346;SDS011;68815;48.810;44.482;2023-04-01T19:37:02;16;;;7.3;;
79346;SDS011;68815;48.810;44.482;2023-04-01T19:40:17;16.4;;;8.2;;
79346;SDS011;68815;48.810;44.482;2023-04-01T19:43:33;15.4;;;8.3;;
79346;SDS011;68815;48.810;44.482;2023-04-01T19:46:41;16.7;;;8.7;;
79346;SDS011;68815;48.810;44.482;2023-04-01T19:49:48;15.2;;;8.3;;
79346;SDS011;68815;48.810;44.482;2023-04-01T19:52:55;14.3;;;8;;
79346;SDS011;68815;48.810;44.482;2023-04-01T19:56:02;15;;;8.4;;
79346;SDS011;68815;48.810;44.482;2023-04-01T19:59:15;17.3;;;9.2;;
79346;SDS011;68815;48.810;44.482;2023-04-01T20:02:31;21.7;;;9.8;;